sensor_id;sensor_type;location;lat;lon;timestamp;P1;durP1;ratioP1;P2;durP2;ratioP2
57856;SDS011;43683;48.650;9.290;2023-01-30T00:02:04;17.73;;;9.50;;
57856;SDS011;43683;48.650;9.290;2023-01-30T00:04:30;19.23;;;9.50;;
57856;SDS011;43683;48.650;9.290;2023-01-30T00:06:55;18.33;;;9.50;;
57856;SDS011;43683;48.650;9.290;2023-01-30T00:09:21;20.52;;;10.25;;
57856;SDS011;43683;48.650;9.290;2023-01-30T00:11:46;15.63;;;8.40;;
57856;SDS011;43683;48.650;9.290;2023-01-30T00:14:12;20.15;;;9.27;;
57856;SDS011;43683;48.650;9.290;2023-01-30T00:16:37;16.10;;;8.60;;
57856;SDS011;43683;48.650;9.290;2023-01-30T00:19:03;17.73;;;8.50;;
57856;SDS011;43683;48.650;9.290;2023-01-30T00:21:28;16.83;;;9.25;;
57856;SDS011;43683;48.650;9.290;2023-01-30T00:23:54;14.77;;;8.85;;
57856;SDS011;43683;48.650;9.290;2023-01-30T00:26:20;17.52;;;8.68;;
57856;SDS011;43683;48.650;9.290;2023-01-30T00:28:45;19.50;;;10.13;;
57856;SDS011;43683;48.650;9.290;2023-01-30T00:31:11;21.65;;;11.75;;
57856;SDS011;43683;48.650;9.290;2023-01-30T00:33:36;23.42;;;10.85;;
57856;SDS011;43683;48.650;9.290;2023-01-30T00:36:03;21.45;;;10.50;;
57856;SDS011;43683;48.650;9.290;2023-01-30T00:38:29;16.92;;;9.45;;
57856;SDS011;43683;48.650;9.290;2023-01-30T00:40:55;15.18;;;8.43;;
57856;SDS011;43683;48.650;9.290;2023-01-30T00:43:20;15.15;;;10.07;;
57856;SDS011;43683;48.650;9.290;2023-01-30T00:46:08;16.20;;;8.77;;
57856;SDS011;43683;48.650;9.290;2023-01-30T00:48:58;17.23;;;9.63;;
57856;SDS011;43683;48.650;9.290;2023-01-30T00:51:24;14.95;;;9.68;;
57856;SDS011;43683;48.650;9.290;2023-01-30T00:53:49;18.70;;;10.20;;
57856;SDS011;43683;48.650;9.290;2023-01-30T00:56:15;19.85;;;10.15;;
57856;SDS011;43683;48.650;9.290;2023-01-30T00:58:40;17.58;;;9.50;;
57856;SDS011;43683;48.650;9.290;2023-01-30T01:01:06;19.50;;;10.40;;
57856;SDS011;43683;48.650;9.290;2023-01-30T01:03:31;16.55;;;9.13;;
57856;SDS011;43683;48.650;9.290;2023-01-30T01:05:58;15.77;;;9.40;;
57856;SDS011;43683;48.650;9.290;2023-01-30T01:08:23;18.15;;;9.93;;
57856;SDS011;43683;48.650;9.290;2023-01-30T01:10:49;21.00;;;10.80;;
57856;SDS011;43683;48.650;9.290;2023-01-30T01:13:14;18.10;;;9.68;;
57856;SDS011;43683;48.650;9.290;2023-01-30T01:15:40;17.58;;;9.95;;
57856;SDS011;43683;48.650;9.290;2023-01-30T01:18:06;15.88;;;8.48;;
57856;SDS011;43683;48.650;9.290;2023-01-30T01:20:31;18.27;;;9.95;;
57856;SDS011;43683;48.650;9.290;2023-01-30T01:22:57;15.00;;;8.35;;
57856;SDS011;43683;48.650;9.290;2023-01-30T01:25:23;17.60;;;8.93;;
57856;SDS011;43683;48.650;9.290;2023-01-30T01:27:49;21.30;;;10.68;;
57856;SDS011;43683;48.650;9.290;2023-01-30T01:30:15;17.67;;;10.23;;
57856;SDS011;43683;48.650;9.290;2023-01-30T01:32:41;17.15;;;9.23;;
57856;SDS011;43683;48.650;9.290;2023-01-30T01:35:07;19.75;;;9.88;;
57856;SDS011;43683;48.650;9.290;2023-01-30T01:37:32;20.88;;;10.25;;
57856;SDS011;43683;48.650;9.290;2023-01-30T01:39:58;19.77;;;11.05;;
57856;SDS011;43683;48.650;9.290;2023-01-30T01:42:42;19.27;;;10.65;;
57856;SDS011;43683;48.650;9.290;2023-01-30T01:47:35;19.75;;;10.35;;
57856;SDS011;43683;48.650;9.290;2023-01-30T01:50:03;25.35;;;12.02;;
57856;SDS011;43683;48.650;9.290;2023-01-30T01:54:57;15.23;;;8.25;;
57856;SDS011;43683;48.650;9.290;2023-01-30T01:57:28;21.20;;;9.35;;
57856;SDS011;43683;48.650;9.290;2023-01-30T02:00:00;19.13;;;9.95;;
57856;SDS011;43683;48.650;9.290;2023-01-30T02:02:30;17.90;;;8.98;;
57856;SDS011;43683;48.650;9.290;2023-01-30T02:04:57;19.17;;;9.63;;
57856;SDS011;43683;48.650;9.290;2023-01-30T02:07:28;18.92;;;9.10;;
57856;SDS011;43683;48.650;9.290;2023-01-30T02:10:02;16.98;;;9.23;;
57856;SDS011;43683;48.650;9.290;2023-01-30T02:12:30;16.88;;;8.68;;
57856;SDS011;43683;48.650;9.290;2023-01-30T02:14:56;19.27;;;9.35;;
57856;SDS011;43683;48.650;9.290;2023-01-30T02:17:23;17.88;;;9.27;;
57856;SDS011;43683;48.650;9.290;2023-01-30T02:19:59;16.48;;;9.68;;
57856;SDS011;43683;48.650;9.290;2023-01-30T02:28:46;14.77;;;8.75;;
57856;SDS011;43683;48.650;9.290;2023-01-30T02:31:36;15.77;;;8.30;;
57856;SDS011;43683;48.650;9.290;2023-01-30T02:34:10;16.58;;;10.02;;
57856;SDS011;43683;48.650;9.290;2023-01-30T02:36:51;17.20;;;9.32;;
57856;SDS011;43683;48.650;9.290;2023-01-30T02:43:02;15.30;;;9.18;;
57856;SDS011;43683;48.650;9.290;2023-01-30T02:48:41;16.27;;;8.27;;
57856;SDS011;43683;48.650;9.290;2023-01-30T02:51:16;18.67;;;9.40;;
57856;SDS011;43683;48.650;9.290;2023-01-30T02:53:47;19.88;;;9.80;;
57856;SDS011;43683;48.650;9.290;2023-01-30T02:56:14;19.20;;;9.35;;
57856;SDS011;43683;48.650;9.290;2023-01-30T02:58:41;18.92;;;10.07;;
57856;SDS011;43683;48.650;9.290;2023-01-30T03:06:54;23.70;;;11.45;;
57856;SDS011;43683;48.650;9.290;2023-01-30T03:14:54;19.42;;;9.82;;
57856;SDS011;43683;48.650;9.290;2023-01-30T03:17:28;19.08;;;9.25;;
57856;SDS011;43683;48.650;9.290;2023-01-30T03:19:56;16.75;;;9.25;;
57856;SDS011;43683;48.650;9.290;2023-01-30T03:22:22;19.02;;;9.45;;
57856;SDS011;43683;48.650;9.290;2023-01-30T03:24:48;20.70;;;9.45;;
57856;SDS011;43683;48.650;9.290;2023-01-30T03:27:16;22.02;;;11.55;;
57856;SDS011;43683;48.650;9.290;2023-01-30T03:29:43;23.65;;;11.38;;
57856;SDS011;43683;48.650;9.290;2023-01-30T03:32:08;19.67;;;10.07;;
57856;SDS011;43683;48.650;9.290;2023-01-30T03:34:34;20.10;;;10.13;;
57856;SDS011;43683;48.650;9.290;2023-01-30T03:36:59;19.40;;;11.10;;
57856;SDS011;43683;48.650;9.290;2023-01-30T03:39:25;18.08;;;9.32;;
57856;SDS011;43683;48.650;9.290;2023-01-30T03:41:51;17.92;;;9.65;;
57856;SDS011;43683;48.650;9.290;2023-01-30T03:44:17;17.45;;;8.20;;
57856;SDS011;43683;48.650;9.290;2023-01-30T03:46:43;16.85;;;9.05;;
57856;SDS011;43683;48.650;9.290;2023-01-30T03:49:09;19.50;;;10.23;;
57856;SDS011;43683;48.650;9.290;2023-01-30T03:51:34;15.73;;;9.38;;
57856;SDS011;43683;48.650;9.290;2023-01-30T03:54:00;19.50;;;8.20;;
57856;SDS011;43683;48.650;9.290;2023-01-30T03:56:26;18.98;;;10.63;;
57856;SDS011;43683;48.650;9.290;2023-01-30T03:58:51;22.60;;;10.75;;
57856;SDS011;43683;48.650;9.290;2023-01-30T04:01:17;16.45;;;8.38;;
57856;SDS011;43683;48.650;9.290;2023-01-30T04:03:42;18.73;;;9.85;;
57856;SDS011;43683;48.650;9.290;2023-01-30T04:06:08;14.82;;;8.02;;
57856;SDS011;43683;48.650;9.290;2023-01-30T04:08:33;16.25;;;8.68;;
57856;SDS011;43683;48.650;9.290;2023-01-30T04:10:59;16.75;;;8.60;;
57856;SDS011;43683;48.650;9.290;2023-01-30T04:13:24;16.25;;;8.85;;
57856;SDS011;43683;48.650;9.290;2023-01-30T04:15:50;21.88;;;9.32;;
57856;SDS011;43683;48.650;9.290;2023-01-30T04:18:15;15.32;;;7.78;;
57856;SDS011;43683;48.650;9.290;2023-01-30T04:20:41;14.75;;;8.70;;
57856;SDS011;43683;48.650;9.290;2023-01-30T04:23:06;14.73;;;7.65;;
57856;SDS011;43683;48.650;9.290;2023-01-30T04:25:32;13.82;;;7.40;;
57856;SDS011;43683;48.650;9.290;2023-01-30T04:27:57;10.32;;;5.47;;
57856;SDS011;43683;48.650;9.290;2023-01-30T04:30:23;16.98;;;8.05;;
57856;SDS011;43683;48.650;9.290;2023-01-30T04:32:48;13.63;;;8.05;;
57856;SDS011;43683;48.650;9.290;2023-01-30T04:35:14;13.20;;;8.23;;
57856;SDS011;43683;48.650;9.290;2023-01-30T04:37:40;15.25;;;8.40;;
57856;SDS011;43683;48.650;9.290;2023-01-30T04:40:05;15.00;;;7.57;;
57856;SDS011;43683;48.650;9.290;2023-01-30T04:42:31;15.18;;;8.40;;
57856;SDS011;43683;48.650;9.290;2023-01-30T04:44:57;17.50;;;8.40;;
57856;SDS011;43683;48.650;9.290;2023-01-30T04:47:22;16.15;;;8.52;;
57856;SDS011;43683;48.650;9.290;2023-01-30T04:49:48;14.77;;;7.82;;
57856;SDS011;43683;48.650;9.290;2023-01-30T04:52:13;12.00;;;7.40;;
57856;SDS011;43683;48.650;9.290;2023-01-30T04:54:39;14.57;;;7.63;;
57856;SDS011;43683;48.650;9.290;2023-01-30T04:57:04;11.85;;;7.43;;
57856;SDS011;43683;48.650;9.290;2023-01-30T04:59:30;13.85;;;7.68;;
57856;SDS011;43683;48.650;9.290;2023-01-30T05:01:55;11.73;;;7.05;;
57856;SDS011;43683;48.650;9.290;2023-01-30T05:04:21;14.30;;;7.82;;
57856;SDS011;43683;48.650;9.290;2023-01-30T05:06:46;13.02;;;7.22;;
57856;SDS011;43683;48.650;9.290;2023-01-30T05:09:12;13.40;;;6.97;;
57856;SDS011;43683;48.650;9.290;2023-01-30T05:11:37;10.25;;;6.65;;
57856;SDS011;43683;48.650;9.290;2023-01-30T05:14:03;13.02;;;6.80;;
57856;SDS011;43683;48.650;9.290;2023-01-30T05:16:29;13.27;;;7.30;;
57856;SDS011;43683;48.650;9.290;2023-01-30T05:18:54;14.05;;;7.65;;
57856;SDS011;43683;48.650;9.290;2023-01-30T05:21:21;12.52;;;7.05;;
57856;SDS011;43683;48.650;9.290;2023-01-30T05:23:50;10.98;;;6.70;;
57856;SDS011;43683;48.650;9.290;2023-01-30T05:26:16;12.00;;;6.75;;
57856;SDS011;43683;48.650;9.290;2023-01-30T05:28:42;8.50;;;5.57;;
57856;SDS011;43683;48.650;9.290;2023-01-30T05:31:09;12.10;;;6.22;;
57856;SDS011;43683;48.650;9.290;2023-01-30T05:33:37;11.07;;;6.85;;
57856;SDS011;43683;48.650;9.290;2023-01-30T05:36:03;15.25;;;7.63;;
57856;SDS011;43683;48.650;9.290;2023-01-30T05:38:29;13.23;;;6.97;;
57856;SDS011;43683;48.650;9.290;2023-01-30T05:40:58;8.82;;;6.10;;
57856;SDS011;43683;48.650;9.290;2023-01-30T05:43:31;14.13;;;6.68;;
57856;SDS011;43683;48.650;9.290;2023-01-30T05:45:58;13.32;;;7.07;;
57856;SDS011;43683;48.650;9.290;2023-01-30T05:48:25;12.35;;;6.95;;
57856;SDS011;43683;48.650;9.290;2023-01-30T05:50:51;12.48;;;6.70;;
57856;SDS011;43683;48.650;9.290;2023-01-30T05:53:17;14.10;;;7.18;;
57856;SDS011;43683;48.650;9.290;2023-01-30T05:55:44;12.32;;;6.75;;
57856;SDS011;43683;48.650;9.290;2023-01-30T05:58:10;10.93;;;6.03;;
57856;SDS011;43683;48.650;9.290;2023-01-30T06:00:36;12.57;;;6.10;;
57856;SDS011;43683;48.650;9.290;2023-01-30T06:03:01;10.80;;;6.20;;
57856;SDS011;43683;48.650;9.290;2023-01-30T06:05:27;13.40;;;6.95;;
57856;SDS011;43683;48.650;9.290;2023-01-30T06:07:52;12.45;;;6.70;;
57856;SDS011;43683;48.650;9.290;2023-01-30T06:10:18;7.57;;;4.90;;
57856;SDS011;43683;48.650;9.290;2023-01-30T06:12:43;10.15;;;6.00;;
57856;SDS011;43683;48.650;9.290;2023-01-30T06:15:09;12.45;;;6.75;;
57856;SDS011;43683;48.650;9.290;2023-01-30T06:17:35;11.60;;;6.35;;
57856;SDS011;43683;48.650;9.290;2023-01-30T06:20:00;11.40;;;6.47;;
57856;SDS011;43683;48.650;9.290;2023-01-30T06:22:26;12.15;;;6.38;;
57856;SDS011;43683;48.650;9.290;2023-01-30T06:24:52;12.85;;;6.28;;
57856;SDS011;43683;48.650;9.290;2023-01-30T06:27:17;13.15;;;6.63;;
57856;SDS011;43683;48.650;9.290;2023-01-30T06:29:43;9.95;;;6.07;;
57856;SDS011;43683;48.650;9.290;2023-01-30T06:32:08;12.90;;;7.35;;
57856;SDS011;43683;48.650;9.290;2023-01-30T06:34:34;10.60;;;6.28;;
57856;SDS011;43683;48.650;9.290;2023-01-30T06:37:00;9.25;;;5.45;;
57856;SDS011;43683;48.650;9.290;2023-01-30T06:39:25;9.70;;;5.90;;
57856;SDS011;43683;48.650;9.290;2023-01-30T06:41:51;11.25;;;6.65;;
57856;SDS011;43683;48.650;9.290;2023-01-30T06:44:16;7.30;;;4.57;;
57856;SDS011;43683;48.650;9.290;2023-01-30T06:46:42;10.45;;;6.45;;
57856;SDS011;43683;48.650;9.290;2023-01-30T06:49:07;8.45;;;5.40;;
57856;SDS011;43683;48.650;9.290;2023-01-30T06:51:32;8.65;;;5.85;;
57856;SDS011;43683;48.650;9.290;2023-01-30T06:53:58;9.68;;;5.72;;
57856;SDS011;43683;48.650;9.290;2023-01-30T06:56:23;8.65;;;5.75;;
57856;SDS011;43683;48.650;9.290;2023-01-30T06:58:49;9.13;;;5.07;;
57856;SDS011;43683;48.650;9.290;2023-01-30T07:01:14;9.48;;;5.68;;
57856;SDS011;43683;48.650;9.290;2023-01-30T07:03:40;9.88;;;5.63;;
57856;SDS011;43683;48.650;9.290;2023-01-30T07:06:05;8.75;;;5.75;;
57856;SDS011;43683;48.650;9.290;2023-01-30T07:08:31;7.30;;;4.88;;
57856;SDS011;43683;48.650;9.290;2023-01-30T07:10:56;11.10;;;5.47;;
57856;SDS011;43683;48.650;9.290;2023-01-30T07:13:22;9.90;;;5.13;;
57856;SDS011;43683;48.650;9.290;2023-01-30T07:15:47;10.10;;;5.30;;
57856;SDS011;43683;48.650;9.290;2023-01-30T07:18:13;9.20;;;5.20;;
57856;SDS011;43683;48.650;9.290;2023-01-30T07:20:39;10.45;;;5.30;;
57856;SDS011;43683;48.650;9.290;2023-01-30T07:23:06;10.17;;;5.27;;
57856;SDS011;43683;48.650;9.290;2023-01-30T07:25:31;10.38;;;5.10;;
57856;SDS011;43683;48.650;9.290;2023-01-30T07:27:58;12.02;;;6.43;;
57856;SDS011;43683;48.650;9.290;2023-01-30T07:32:52;7.53;;;4.78;;
57856;SDS011;43683;48.650;9.290;2023-01-30T07:35:19;8.20;;;4.80;;
57856;SDS011;43683;48.650;9.290;2023-01-30T07:37:46;10.80;;;5.45;;
57856;SDS011;43683;48.650;9.290;2023-01-30T07:40:12;9.27;;;5.20;;
57856;SDS011;43683;48.650;9.290;2023-01-30T07:42:38;10.32;;;5.60;;
57856;SDS011;43683;48.650;9.290;2023-01-30T07:45:04;12.07;;;5.60;;
57856;SDS011;43683;48.650;9.290;2023-01-30T07:47:30;10.68;;;5.55;;
57856;SDS011;43683;48.650;9.290;2023-01-30T07:49:55;10.32;;;5.82;;
57856;SDS011;43683;48.650;9.290;2023-01-30T07:52:21;11.60;;;6.00;;
57856;SDS011;43683;48.650;9.290;2023-01-30T07:54:46;9.48;;;5.03;;
57856;SDS011;43683;48.650;9.290;2023-01-30T07:57:12;8.77;;;4.72;;
57856;SDS011;43683;48.650;9.290;2023-01-30T07:59:37;10.27;;;5.47;;
57856;SDS011;43683;48.650;9.290;2023-01-30T08:02:03;9.52;;;4.97;;
57856;SDS011;43683;48.650;9.290;2023-01-30T08:04:28;7.82;;;4.60;;
57856;SDS011;43683;48.650;9.290;2023-01-30T08:06:54;8.25;;;4.35;;
57856;SDS011;43683;48.650;9.290;2023-01-30T08:09:19;8.95;;;4.30;;
57856;SDS011;43683;48.650;9.290;2023-01-30T08:11:45;10.80;;;4.90;;
57856;SDS011;43683;48.650;9.290;2023-01-30T08:14:10;7.90;;;4.57;;
57856;SDS011;43683;48.650;9.290;2023-01-30T08:16:35;7.55;;;4.78;;
57856;SDS011;43683;48.650;9.290;2023-01-30T08:19:03;4.13;;;3.73;;
57856;SDS011;43683;48.650;9.290;2023-01-30T08:21:29;7.45;;;4.30;;
57856;SDS011;43683;48.650;9.290;2023-01-30T08:23:54;4.85;;;3.28;;
57856;SDS011;43683;48.650;9.290;2023-01-30T08:26:20;8.85;;;4.65;;
57856;SDS011;43683;48.650;9.290;2023-01-30T08:28:45;5.72;;;4.40;;
57856;SDS011;43683;48.650;9.290;2023-01-30T08:31:11;6.07;;;3.67;;
57856;SDS011;43683;48.650;9.290;2023-01-30T08:33:38;7.35;;;4.07;;
57856;SDS011;43683;48.650;9.290;2023-01-30T08:36:04;7.30;;;4.60;;
57856;SDS011;43683;48.650;9.290;2023-01-30T08:38:29;8.90;;;4.72;;
57856;SDS011;43683;48.650;9.290;2023-01-30T08:40:55;7.63;;;4.10;;
57856;SDS011;43683;48.650;9.290;2023-01-30T08:43:22;8.13;;;4.30;;
57856;SDS011;43683;48.650;9.290;2023-01-30T08:45:47;9.15;;;5.03;;
57856;SDS011;43683;48.650;9.290;2023-01-30T08:48:13;8.60;;;4.40;;
57856;SDS011;43683;48.650;9.290;2023-01-30T08:50:39;7.15;;;4.18;;
57856;SDS011;43683;48.650;9.290;2023-01-30T08:53:05;8.75;;;5.38;;
57856;SDS011;43683;48.650;9.290;2023-01-30T08:55:31;8.15;;;4.68;;
57856;SDS011;43683;48.650;9.290;2023-01-30T08:57:57;8.30;;;4.65;;
57856;SDS011;43683;48.650;9.290;2023-01-30T09:00:22;6.78;;;3.85;;
57856;SDS011;43683;48.650;9.290;2023-01-30T09:02:51;6.95;;;4.13;;
57856;SDS011;43683;48.650;9.290;2023-01-30T09:05:20;8.65;;;4.13;;
57856;SDS011;43683;48.650;9.290;2023-01-30T09:07:46;7.47;;;3.88;;
57856;SDS011;43683;48.650;9.290;2023-01-30T09:10:12;6.72;;;4.00;;
57856;SDS011;43683;48.650;9.290;2023-01-30T09:12:37;11.13;;;4.40;;
57856;SDS011;43683;48.650;9.290;2023-01-30T09:15:03;9.77;;;4.32;;
57856;SDS011;43683;48.650;9.290;2023-01-30T09:17:29;8.60;;;4.57;;
57856;SDS011;43683;48.650;9.290;2023-01-30T09:19:54;7.40;;;4.20;;
57856;SDS011;43683;48.650;9.290;2023-01-30T09:22:20;6.43;;;3.97;;
57856;SDS011;43683;48.650;9.290;2023-01-30T09:24:45;8.10;;;4.45;;
57856;SDS011;43683;48.650;9.290;2023-01-30T09:27:11;8.40;;;3.95;;
57856;SDS011;43683;48.650;9.290;2023-01-30T09:29:36;7.18;;;4.07;;
57856;SDS011;43683;48.650;9.290;2023-01-30T09:32:02;7.22;;;4.43;;
57856;SDS011;43683;48.650;9.290;2023-01-30T09:34:27;7.38;;;4.05;;
57856;SDS011;43683;48.650;9.290;2023-01-30T09:36:54;5.55;;;3.30;;
57856;SDS011;43683;48.650;9.290;2023-01-30T09:39:20;6.53;;;3.63;;
57856;SDS011;43683;48.650;9.290;2023-01-30T09:41:48;10.32;;;4.47;;
57856;SDS011;43683;48.650;9.290;2023-01-30T09:47:12;9.98;;;3.55;;
57856;SDS011;43683;48.650;9.290;2023-01-30T09:52:44;5.90;;;3.33;;
57856;SDS011;43683;48.650;9.290;2023-01-30T09:55:26;6.13;;;3.55;;
57856;SDS011;43683;48.650;9.290;2023-01-30T09:57:54;4.10;;;2.83;;
57856;SDS011;43683;48.650;9.290;2023-01-30T10:05:41;7.40;;;3.63;;
57856;SDS011;43683;48.650;9.290;2023-01-30T10:14:22;5.93;;;4.07;;
57856;SDS011;43683;48.650;9.290;2023-01-30T10:17:19;6.57;;;3.72;;
57856;SDS011;43683;48.650;9.290;2023-01-30T10:25:31;4.38;;;2.78;;
57856;SDS011;43683;48.650;9.290;2023-01-30T10:28:11;5.38;;;3.20;;
57856;SDS011;43683;48.650;9.290;2023-01-30T10:30:43;8.85;;;3.30;;
57856;SDS011;43683;48.650;9.290;2023-01-30T10:33:14;6.25;;;3.30;;
57856;SDS011;43683;48.650;9.290;2023-01-30T10:36:02;5.50;;;3.22;;
57856;SDS011;43683;48.650;9.290;2023-01-30T10:38:56;5.05;;;2.90;;
57856;SDS011;43683;48.650;9.290;2023-01-30T10:41:28;4.72;;;3.15;;
57856;SDS011;43683;48.650;9.290;2023-01-30T10:44:01;3.58;;;2.13;;
57856;SDS011;43683;48.650;9.290;2023-01-30T10:54:41;2.95;;;2.40;;
57856;SDS011;43683;48.650;9.290;2023-01-30T11:00:27;5.43;;;3.05;;
57856;SDS011;43683;48.650;9.290;2023-01-30T11:03:05;3.22;;;2.20;;
57856;SDS011;43683;48.650;9.290;2023-01-30T11:05:59;4.25;;;2.67;;
57856;SDS011;43683;48.650;9.290;2023-01-30T11:08:30;3.50;;;2.45;;
57856;SDS011;43683;48.650;9.290;2023-01-30T11:10:57;5.13;;;2.40;;
57856;SDS011;43683;48.650;9.290;2023-01-30T11:13:28;4.75;;;3.28;;
57856;SDS011;43683;48.650;9.290;2023-01-30T11:15:57;5.47;;;2.67;;
57856;SDS011;43683;48.650;9.290;2023-01-30T11:18:24;4.07;;;2.67;;
57856;SDS011;43683;48.650;9.290;2023-01-30T11:21:01;5.47;;;2.47;;
57856;SDS011;43683;48.650;9.290;2023-01-30T11:23:33;8.50;;;2.20;;
57856;SDS011;43683;48.650;9.290;2023-01-30T11:26:03;3.08;;;2.00;;
57856;SDS011;43683;48.650;9.290;2023-01-30T11:28:33;3.60;;;2.20;;
57856;SDS011;43683;48.650;9.290;2023-01-30T11:31:03;4.60;;;2.40;;
57856;SDS011;43683;48.650;9.290;2023-01-30T11:33:32;4.72;;;2.53;;
57856;SDS011;43683;48.650;9.290;2023-01-30T11:36:02;4.25;;;2.30;;
57856;SDS011;43683;48.650;9.290;2023-01-30T11:38:30;2.60;;;1.98;;
57856;SDS011;43683;48.650;9.290;2023-01-30T11:43:34;3.63;;;2.13;;
57856;SDS011;43683;48.650;9.290;2023-01-30T11:46:03;2.58;;;2.03;;
57856;SDS011;43683;48.650;9.290;2023-01-30T11:50:58;2.00;;;1.80;;
57856;SDS011;43683;48.650;9.290;2023-01-30T11:56:21;4.53;;;2.67;;
57856;SDS011;43683;48.650;9.290;2023-01-30T11:59:01;2.08;;;1.70;;
57856;SDS011;43683;48.650;9.290;2023-01-30T12:01:30;3.47;;;2.13;;
57856;SDS011;43683;48.650;9.290;2023-01-30T12:04:00;2.40;;;1.98;;
57856;SDS011;43683;48.650;9.290;2023-01-30T12:06:30;4.18;;;2.35;;
57856;SDS011;43683;48.650;9.290;2023-01-30T12:08:58;3.30;;;2.10;;
57856;SDS011;43683;48.650;9.290;2023-01-30T12:11:25;4.70;;;2.38;;
57856;SDS011;43683;48.650;9.290;2023-01-30T12:14:18;3.58;;;2.55;;
57856;SDS011;43683;48.650;9.290;2023-01-30T12:17:21;3.60;;;2.40;;
57856;SDS011;43683;48.650;9.290;2023-01-30T12:22:40;2.35;;;1.80;;
57856;SDS011;43683;48.650;9.290;2023-01-30T12:25:18;3.55;;;2.03;;
57856;SDS011;43683;48.650;9.290;2023-01-30T12:27:55;2.90;;;2.13;;
57856;SDS011;43683;48.650;9.290;2023-01-30T12:30:34;5.05;;;2.47;;
57856;SDS011;43683;48.650;9.290;2023-01-30T12:33:03;3.88;;;2.05;;
57856;SDS011;43683;48.650;9.290;2023-01-30T12:35:40;3.03;;;2.60;;
57856;SDS011;43683;48.650;9.290;2023-01-30T12:38:17;2.47;;;2.28;;
57856;SDS011;43683;48.650;9.290;2023-01-30T12:43:45;5.03;;;2.85;;
57856;SDS011;43683;48.650;9.290;2023-01-30T12:52:35;3.25;;;2.25;;
57856;SDS011;43683;48.650;9.290;2023-01-30T12:57:59;3.90;;;2.20;;
57856;SDS011;43683;48.650;9.290;2023-01-30T13:03:31;4.00;;;2.80;;
57856;SDS011;43683;48.650;9.290;2023-01-30T13:14:33;5.45;;;3.08;;
57856;SDS011;43683;48.650;9.290;2023-01-30T13:22:20;3.75;;;2.17;;
57856;SDS011;43683;48.650;9.290;2023-01-30T13:25:13;2.72;;;2.10;;
57856;SDS011;43683;48.650;9.290;2023-01-30T13:27:48;3.78;;;2.55;;
57856;SDS011;43683;48.650;9.290;2023-01-30T13:30:21;6.60;;;3.22;;
57856;SDS011;43683;48.650;9.290;2023-01-30T13:32:50;7.45;;;2.63;;
57856;SDS011;43683;48.650;9.290;2023-01-30T13:35:22;6.25;;;2.80;;
57856;SDS011;43683;48.650;9.290;2023-01-30T13:37:57;5.30;;;2.92;;
57856;SDS011;43683;48.650;9.290;2023-01-30T13:40:25;4.90;;;3.05;;
57856;SDS011;43683;48.650;9.290;2023-01-30T13:43:01;4.68;;;3.10;;
57856;SDS011;43683;48.650;9.290;2023-01-30T13:45:35;7.63;;;3.22;;
57856;SDS011;43683;48.650;9.290;2023-01-30T13:51:16;6.07;;;2.55;;
57856;SDS011;43683;48.650;9.290;2023-01-30T13:56:38;3.47;;;2.20;;
57856;SDS011;43683;48.650;9.290;2023-01-30T14:07:06;2.83;;;1.95;;
57856;SDS011;43683;48.650;9.290;2023-01-30T14:09:33;3.50;;;2.15;;
57856;SDS011;43683;48.650;9.290;2023-01-30T14:12:01;6.55;;;2.90;;
57856;SDS011;43683;48.650;9.290;2023-01-30T14:14:33;5.87;;;3.17;;
57856;SDS011;43683;48.650;9.290;2023-01-30T14:17:08;5.50;;;3.17;;
57856;SDS011;43683;48.650;9.290;2023-01-30T14:22:22;4.53;;;2.83;;
57856;SDS011;43683;48.650;9.290;2023-01-30T14:27:52;5.85;;;2.65;;
57856;SDS011;43683;48.650;9.290;2023-01-30T14:32:56;3.78;;;2.47;;
57856;SDS011;43683;48.650;9.290;2023-01-30T14:35:23;6.05;;;3.15;;
57856;SDS011;43683;48.650;9.290;2023-01-30T14:37:51;5.93;;;3.05;;
57856;SDS011;43683;48.650;9.290;2023-01-30T14:40:32;4.88;;;3.05;;
57856;SDS011;43683;48.650;9.290;2023-01-30T14:49:00;6.97;;;3.53;;
57856;SDS011;43683;48.650;9.290;2023-01-30T14:51:43;5.43;;;2.90;;
57856;SDS011;43683;48.650;9.290;2023-01-30T14:59:31;5.32;;;3.05;;
57856;SDS011;43683;48.650;9.290;2023-01-30T15:07:13;6.57;;;3.45;;
57856;SDS011;43683;48.650;9.290;2023-01-30T15:09:52;7.18;;;3.72;;
57856;SDS011;43683;48.650;9.290;2023-01-30T15:12:49;6.35;;;3.25;;
57856;SDS011;43683;48.650;9.290;2023-01-30T15:21:28;4.25;;;2.88;;
57856;SDS011;43683;48.650;9.290;2023-01-30T15:24:49;7.28;;;3.17;;
57856;SDS011;43683;48.650;9.290;2023-01-30T15:32:40;4.78;;;2.88;;
57856;SDS011;43683;48.650;9.290;2023-01-30T15:37:36;6.22;;;3.55;;
57856;SDS011;43683;48.650;9.290;2023-01-30T15:42:45;5.80;;;3.47;;
57856;SDS011;43683;48.650;9.290;2023-01-30T15:50:59;9.05;;;4.97;;
57856;SDS011;43683;48.650;9.290;2023-01-30T15:53:30;5.80;;;3.35;;
57856;SDS011;43683;48.650;9.290;2023-01-30T15:56:00;5.60;;;3.30;;
57856;SDS011;43683;48.650;9.290;2023-01-30T15:58:30;9.13;;;3.50;;
57856;SDS011;43683;48.650;9.290;2023-01-30T16:00:59;7.65;;;3.47;;
57856;SDS011;43683;48.650;9.290;2023-01-30T16:03:27;5.28;;;3.75;;
57856;SDS011;43683;48.650;9.290;2023-01-30T16:05:56;7.28;;;4.13;;
57856;SDS011;43683;48.650;9.290;2023-01-30T16:10:54;5.57;;;3.13;;
57856;SDS011;43683;48.650;9.290;2023-01-30T16:13:20;4.75;;;2.95;;
57856;SDS011;43683;48.650;9.290;2023-01-30T16:18:37;3.95;;;2.70;;
57856;SDS011;43683;48.650;9.290;2023-01-30T16:21:37;5.13;;;3.20;;
57856;SDS011;43683;48.650;9.290;2023-01-30T16:24:11;8.75;;;5.20;;
57856;SDS011;43683;48.650;9.290;2023-01-30T16:26:47;8.75;;;4.90;;
57856;SDS011;43683;48.650;9.290;2023-01-30T16:29:16;7.57;;;4.43;;
57856;SDS011;43683;48.650;9.290;2023-01-30T16:31:45;8.50;;;5.53;;
57856;SDS011;43683;48.650;9.290;2023-01-30T16:39:42;6.43;;;3.75;;
57856;SDS011;43683;48.650;9.290;2023-01-30T16:42:21;5.30;;;4.20;;
57856;SDS011;43683;48.650;9.290;2023-01-30T16:44:49;5.38;;;3.38;;
57856;SDS011;43683;48.650;9.290;2023-01-30T16:47:22;6.32;;;3.47;;
57856;SDS011;43683;48.650;9.290;2023-01-30T16:49:48;5.80;;;3.55;;
57856;SDS011;43683;48.650;9.290;2023-01-30T16:52:21;6.88;;;3.40;;
57856;SDS011;43683;48.650;9.290;2023-01-30T16:55:05;6.53;;;3.97;;
57856;SDS011;43683;48.650;9.290;2023-01-30T16:57:58;5.68;;;3.65;;
57856;SDS011;43683;48.650;9.290;2023-01-30T17:03:00;6.03;;;3.47;;
57856;SDS011;43683;48.650;9.290;2023-01-30T17:05:48;7.80;;;3.47;;
57856;SDS011;43683;48.650;9.290;2023-01-30T17:10:56;4.38;;;2.78;;
57856;SDS011;43683;48.650;9.290;2023-01-30T17:13:30;7.65;;;3.67;;
57856;SDS011;43683;48.650;9.290;2023-01-30T17:18:46;7.05;;;5.35;;
57856;SDS011;43683;48.650;9.290;2023-01-30T17:21:13;8.52;;;4.10;;
57856;SDS011;43683;48.650;9.290;2023-01-30T17:23:40;5.90;;;3.67;;
57856;SDS011;43683;48.650;9.290;2023-01-30T17:26:09;8.25;;;3.85;;
57856;SDS011;43683;48.650;9.290;2023-01-30T17:28:40;4.25;;;2.67;;
57856;SDS011;43683;48.650;9.290;2023-01-30T17:31:09;6.45;;;3.33;;
57856;SDS011;43683;48.650;9.290;2023-01-30T17:33:35;7.40;;;3.92;;
57856;SDS011;43683;48.650;9.290;2023-01-30T17:36:02;4.53;;;3.58;;
57856;SDS011;43683;48.650;9.290;2023-01-30T17:38:30;5.43;;;3.40;;
57856;SDS011;43683;48.650;9.290;2023-01-30T17:40:56;5.20;;;3.22;;
57856;SDS011;43683;48.650;9.290;2023-01-30T17:43:21;4.75;;;3.42;;
57856;SDS011;43683;48.650;9.290;2023-01-30T17:45:47;6.55;;;3.83;;
57856;SDS011;43683;48.650;9.290;2023-01-30T17:48:13;5.13;;;3.75;;
57856;SDS011;43683;48.650;9.290;2023-01-30T17:50:38;5.55;;;4.13;;
57856;SDS011;43683;48.650;9.290;2023-01-30T17:53:04;4.68;;;3.05;;
57856;SDS011;43683;48.650;9.290;2023-01-30T17:55:31;5.32;;;3.45;;
57856;SDS011;43683;48.650;9.290;2023-01-30T17:57:58;5.18;;;3.45;;